Time;durP1;ratioP1;P1;durP2;ratioP2;P2;SDS_P1;SDS_P2;PMS_P1;PMS_P2;Temp;Humidity;BMP_temperature;BMP_pressure;BME280_temperature;BME280_humidity;BME280_pressure;Samples;Min_cycle;Max_cycle;Signal;HPM_P1;HPM_P2
2021/04/25 00:02:24;;;;;;;5.07;4.32;;;9.80;99.90;;;;;;5052207;28;20032;-72
2021/04/25 00:04:51;;;;;;;8.52;4.25;;;9.80;99.90;;;;;;5050398;28;20108;-71
2021/04/25 00:07:16;;;;;;;7.10;4.22;;;9.80;99.90;;;;;;5059187;28;20436;-71
2021/04/25 00:09:43;;;;;;;9.35;3.88;;;9.70;1.00;;;;;;5053080;28;20022;-71
2021/04/25 00:12:08;;;;;;;11.60;4.72;;;9.70;16.00;;;;;;5040612;28;20023;-72
2021/04/25 00:14:34;;;;;;;6.50;4.72;;;9.60;99.90;;;;;;5049949;28;20396;-71
2021/04/25 00:17:00;;;;;;;7.07;4.18;;;9.60;99.90;;;;;;5048774;28;20372;-71
2021/04/25 00:19:26;;;;;;;7.50;3.95;;;9.60;99.90;;;;;;5039871;28;20497;-71
2021/04/25 00:21:52;;;;;;;6.15;3.75;;;9.50;99.90;;;;;;5034070;28;20032;-71
2021/04/25 00:24:18;;;;;;;6.28;3.55;;;9.50;1.00;;;;;;5051223;28;20092;-70
2021/04/25 00:26:43;;;;;;;6.55;3.95;;;9.60;99.90;;;;;;5048031;28;20075;-70
2021/04/25 00:29:09;;;;;;;8.68;3.85;;;9.50;99.90;;;;;;5052597;28;20043;-71
2021/04/25 00:31:34;;;;;;;5.60;4.03;;;9.60;99.90;;;;;;5052875;28;20037;-72
2021/04/25 00:34:00;;;;;;;8.70;4.53;;;9.50;99.90;;;;;;5052544;28;20427;-70
2021/04/25 00:36:26;;;;;;;6.88;3.92;;;9.50;1.00;;;;;;5052073;28;20036;-70
2021/04/25 00:38:53;;;;;;;5.97;4.07;;;9.50;99.90;;;;;;5053641;28;20029;-69
2021/04/25 00:41:19;;;;;;;5.00;3.85;;;9.50;99.90;;;;;;5042367;28;20035;-71
2021/04/25 00:43:44;;;;;;;5.32;3.90;;;9.50;99.90;;;;;;5032580;28;20434;-72
2021/04/25 00:46:10;;;;;;;7.93;4.15;;;9.50;99.90;;;;;;5041269;28;20086;-71
2021/04/25 00:48:35;;;;;;;3.97;3.28;;;9.40;99.90;;;;;;5035209;28;20029;-71
2021/04/25 00:51:02;;;;;;;5.13;3.70;;;9.40;1.00;;;;;;5039333;28;20112;-70
2021/04/25 00:53:28;;;;;;;6.75;4.07;;;9.40;1.00;;;;;;5035915;28;20084;-71
2021/04/25 00:55:54;;;;;;;9.88;4.05;;;9.40;1.00;;;;;;5032172;28;20056;-71
2021/04/25 00:58:21;;;;;;;6.65;4.60;;;9.30;1.00;;;;;;5034039;28;20025;-71
2021/04/25 01:00:47;;;;;;;6.63;4.15;;;9.30;22.20;;;;;;5032445;28;20032;-71
2021/04/25 01:03:12;;;;;;;6.85;3.78;;;9.30;69.00;;;;;;5036467;28;20017;-71
2021/04/25 01:05:38;;;;;;;5.32;4.38;;;9.20;99.90;;;;;;5044722;28;20022;-70
2021/04/25 01:08:04;;;;;;;5.72;4.18;;;9.20;99.90;;;;;;5047765;28;20488;-71
2021/04/25 01:10:30;;;;;;;5.68;4.05;;;9.20;99.90;;;;;;5051746;28;20025;-71
2021/04/25 01:12:58;;;;;;;5.28;3.60;;;9.20;99.90;;;;;;5054101;28;20033;-71
2021/04/25 01:15:24;;;;;;;6.10;4.60;;;9.10;99.90;;;;;;5053800;28;20155;-71
2021/04/25 01:17:50;;;;;;;5.20;3.95;;;9.10;99.90;;;;;;5043842;28;20049;-71
2021/04/25 01:20:18;;;;;;;6.75;4.60;;;9.10;99.90;;;;;;5041897;28;20451;-70
2021/04/25 01:22:44;;;;;;;6.00;3.63;;;9.10;99.90;;;;;;5034713;28;20022;-71
2021/04/25 01:25:12;;;;;;;4.88;3.80;;;9.00;99.90;;;;;;5034413;28;20048;-71
2021/04/25 01:27:38;;;;;;;6.40;4.10;;;9.00;1.00;;;;;;5044393;28;20033;-71
2021/04/25 01:30:07;;;;;;;5.63;4.00;;;8.90;1.00;;;;;;5040327;28;20048;-71
2021/04/25 01:32:34;;;;;;;5.40;4.13;;;8.90;86.00;;;;;;5048291;28;20116;-70
2021/04/25 01:35:00;;;;;;;5.68;4.45;;;8.90;99.90;;;;;;5057672;28;20041;-70
2021/04/25 01:37:26;;;;;;;5.00;3.63;;;8.80;99.90;;;;;;5064429;28;20039;-72
2021/04/25 01:39:51;;;;;;;6.40;4.60;;;8.80;99.90;;;;;;5061674;28;20029;-70
2021/04/25 01:42:18;;;;;;;7.32;3.80;;;8.80;99.90;;;;;;5060817;28;20022;-70
2021/04/25 01:44:44;;;;;;;5.35;3.53;;;8.70;99.90;;;;;;5063160;28;20021;-70
2021/04/25 01:47:09;;;;;;;10.38;4.40;;;8.70;99.90;;;;;;5052937;28;20056;-70
2021/04/25 01:49:35;;;;;;;5.85;4.07;;;8.70;99.90;;;;;;5049751;28;20037;-70
2021/04/25 01:52:02;;;;;;;6.28;3.72;;;8.70;99.90;;;;;;5050505;28;20097;-70
2021/04/25 01:54:27;;;;;;;7.82;4.05;;;8.60;1.00;;;;;;5049611;28;20025;-70
2021/04/25 01:56:53;;;;;;;6.20;4.35;;;8.60;1.00;;;;;;5044966;28;20025;-70
2021/04/25 01:59:19;;;;;;;7.43;3.92;;;8.60;1.00;;;;;;5057070;28;20382;-71
2021/04/25 02:01:45;;;;;;;6.25;4.13;;;8.50;1.00;;;;;;5050099;28;20477;-71
2021/04/25 02:04:12;;;;;;;7.55;4.53;;;8.50;1.00;;;;;;5041311;28;20392;-70
2021/04/25 02:06:42;;;;;;;6.40;4.10;;;8.50;1.00;;;;;;5051803;28;20085;-70
2021/04/25 02:09:08;;;;;;;5.45;4.43;;;8.40;49.60;;;;;;5052857;28;20013;-70
2021/04/25 02:11:33;;;;;;;7.60;4.32;;;8.40;92.80;;;;;;5069120;28;20040;-68
2021/04/25 02:13:59;;;;;;;8.57;4.68;;;8.30;99.90;;;;;;5072344;28;20072;-70
2021/04/25 02:16:24;;;;;;;6.57;4.80;;;8.30;99.90;;;;;;5061984;28;20021;-69
2021/04/25 02:18:50;;;;;;;5.45;4.35;;;8.20;99.90;;;;;;5059548;28;20029;-70
2021/04/25 02:21:16;;;;;;;7.63;4.45;;;8.20;99.90;;;;;;5049657;28;20017;-70
2021/04/25 02:23:41;;;;;;;7.03;5.03;;;8.20;99.90;;;;;;5046904;28;20079;-70
2021/04/25 02:26:07;;;;;;;5.10;4.13;;;8.20;99.90;;;;;;5041712;28;20488;-70
2021/04/25 02:28:32;;;;;;;6.03;4.20;;;8.10;99.90;;;;;;5036986;28;20030;-71
2021/04/25 02:30:58;;;;;;;4.85;4.38;;;8.10;99.90;;;;;;5040821;28;20037;-71
2021/04/25 02:33:24;;;;;;;9.10;5.13;;;8.10;99.90;;;;;;5039806;28;20029;-71
2021/04/25 02:35:49;;;;;;;5.85;4.40;;;8.10;99.90;;;;;;5036935;28;20033;-69
2021/04/25 02:38:15;;;;;;;4.38;3.97;;;8.00;99.90;;;;;;5035784;28;20053;-70
2021/04/25 02:40:40;;;;;;;6.75;4.60;;;8.00;99.90;;;;;;5036938;28;20125;-70
2021/04/25 02:43:06;;;;;;;6.28;4.97;;;8.00;99.90;;;;;;5040156;28;20103;-70
2021/04/25 02:45:32;;;;;;;6.38;4.55;;;7.90;99.90;;;;;;5044503;28;20488;-70
2021/04/25 02:48:01;;;;;;;11.10;4.10;;;7.90;99.90;;;;;;5036070;28;20036;-70
2021/04/25 02:50:29;;;;;;;5.47;4.18;;;7.90;99.90;;;;;;5035893;28;20115;-70
2021/04/25 02:52:55;;;;;;;7.68;4.72;;;7.80;99.90;;;;;;5035717;28;20670;-70
2021/04/25 02:55:21;;;;;;;9.18;5.15;;;7.80;99.90;;;;;;5035223;28;20060;-70
2021/04/25 02:57:47;;;;;;;5.45;4.32;;;7.80;1.00;;;;;;5036003;28;20453;-70
2021/04/25 03:00:17;;;;;;;4.97;3.97;;;7.70;1.00;;;;;;5043432;28;20018;-72
2021/04/25 03:02:43;;;;;;;5.28;4.78;;;7.70;1.00;;;;;;5036321;28;20021;-70
2021/04/25 03:05:09;;;;;;;6.68;4.13;;;7.60;1.00;;;;;;5034107;28;20072;-70
2021/04/25 03:07:35;;;;;;;5.63;4.40;;;7.60;1.00;;;;;;5052097;28;20021;-70
2021/04/25 03:10:00;;;;;;;7.03;4.97;;;7.60;1.00;;;;;;5049267;28;20397;-70
2021/04/25 03:12:26;;;;;;;6.55;4.47;;;7.60;1.00;;;;;;5046703;28;20029;-71
2021/04/25 03:14:52;;;;;;;4.35;3.83;;;7.60;1.00;;;;;;5045189;28;20370;-70
2021/04/25 03:17:18;;;;;;;8.68;5.43;;;7.60;1.00;;;;;;5037802;28;20029;-70
2021/04/25 03:19:43;;;;;;;7.80;4.57;;;7.60;1.00;;;;;;5033852;28;20104;-70
2021/04/25 03:22:09;;;;;;;7.68;4.63;;;7.60;1.00;;;;;;5034923;28;20026;-70
2021/04/25 03:24:34;;;;;;;8.73;4.63;;;7.60;1.00;;;;;;5035067;28;20057;-70
2021/04/25 03:27:01;;;;;;;6.85;4.97;;;7.60;1.00;;;;;;5034823;28;20026;-69
2021/04/25 03:29:27;;;;;;;5.70;4.20;;;7.50;1.00;;;;;;5042801;28;20029;-69
2021/04/25 03:31:52;;;;;;;6.45;4.05;;;7.40;1.00;;;;;;5045595;28;20039;-70
2021/04/25 03:34:18;;;;;;;9.98;5.30;;;7.40;1.00;;;;;;5043026;28;20025;-70
2021/04/25 03:36:43;;;;;;;6.70;4.22;;;7.40;1.00;;;;;;5054461;28;20043;-70
2021/04/25 03:39:09;;;;;;;9.07;4.63;;;7.40;1.00;;;;;;5043186;28;20028;-70
2021/04/25 03:41:35;;;;;;;7.55;4.40;;;7.30;1.00;;;;;;5043214;28;20021;-70
2021/04/25 03:44:01;;;;;;;6.93;5.05;;;7.40;1.00;;;;;;5040090;28;20427;-70
2021/04/25 03:46:26;;;;;;;6.20;4.70;;;7.30;1.00;;;;;;5037091;28;20127;-70
2021/04/25 03:48:52;;;;;;;7.28;3.92;;;7.30;1.00;;;;;;5033496;28;20088;-71
2021/04/25 03:51:18;;;;;;;7.72;4.93;;;7.20;1.00;;;;;;5034479;28;20195;-70
2021/04/25 03:53:43;;;;;;;9.05;4.30;;;7.20;13.50;;;;;;5034091;28;20073;-70
2021/04/25 03:56:09;;;;;;;7.15;4.70;;;7.10;23.60;;;;;;5038819;28;20025;-70
2021/04/25 03:58:34;;;;;;;8.65;4.78;;;7.10;39.40;;;;;;5045659;28;20516;-70
2021/04/25 04:01:00;;;;;;;7.57;4.78;;;7.00;48.00;;;;;;5053658;28;20465;-70
2021/04/25 04:03:26;;;;;;;5.57;4.97;;;7.00;67.70;;;;;;5053892;28;20053;-70
2021/04/25 04:05:51;;;;;;;7.10;4.45;;;7.00;85.10;;;;;;5053769;28;20091;-70
2021/04/25 04:08:17;;;;;;;9.40;5.07;;;7.00;90.60;;;;;;5045271;28;20366;-71
2021/04/25 04:10:42;;;;;;;5.93;4.07;;;6.90;99.90;;;;;;5042434;28;20025;-70
2021/04/25 04:13:08;;;;;;;6.45;5.50;;;6.80;99.90;;;;;;5048072;28;20023;-70
2021/04/25 04:15:34;;;;;;;6.25;4.50;;;6.80;99.90;;;;;;5054048;28;20029;-70
2021/04/25 04:17:59;;;;;;;6.95;5.32;;;6.90;99.90;;;;;;5055821;28;20032;-69
2021/04/25 04:20:25;;;;;;;8.68;4.75;;;6.80;99.90;;;;;;5055508;28;20063;-69
2021/04/25 04:22:51;;;;;;;6.82;4.72;;;6.80;99.90;;;;;;5045315;28;20469;-70
2021/04/25 04:25:16;;;;;;;6.78;4.68;;;6.80;99.90;;;;;;5043280;28;20049;-70
2021/04/25 04:27:42;;;;;;;6.93;4.95;;;6.90;99.90;;;;;;5034547;28;20057;-70
2021/04/25 04:30:08;;;;;;;7.50;4.88;;;6.90;99.90;;;;;;5034423;28;20021;-71
2021/04/25 04:32:34;;;;;;;7.57;5.55;;;6.90;99.90;;;;;;5034006;28;20029;-71
2021/04/25 04:35:00;;;;;;;8.68;5.80;;;6.90;99.90;;;;;;5033089;28;20052;-71
2021/04/25 04:37:26;;;;;;;7.47;5.10;;;6.90;99.90;;;;;;5037639;28;20086;-71
2021/04/25 04:39:51;;;;;;;10.52;4.63;;;7.10;99.90;;;;;;5039928;28;20018;-70
2021/04/25 04:42:17;;;;;;;7.22;4.43;;;7.40;56.90;;;;;;5033361;28;20072;-70
2021/04/25 04:44:42;;;;;;;10.38;5.30;;;7.70;5.20;;;;;;5033597;28;20045;-71
2021/04/25 04:47:08;;;;;;;8.20;4.50;;;7.90;1.00;;;;;;5035191;28;20550;-70
2021/04/25 04:49:35;;;;;;;7.20;4.47;;;7.80;1.00;;;;;;5039618;28;20053;-70
2021/04/25 04:52:01;;;;;;;10.68;5.10;;;8.00;1.00;;;;;;5045543;28;20085;-70
2021/04/25 04:54:26;;;;;;;5.03;4.40;;;8.10;1.00;;;;;;5044060;28;20057;-69
2021/04/25 04:56:52;;;;;;;6.38;5.07;;;8.30;1.00;;;;;;5034491;28;20038;-70
2021/04/25 04:59:17;;;;;;;7.70;4.85;;;8.50;99.90;;;;;;5034293;28;20029;-71
2021/04/25 05:01:43;;;;;;;7.32;4.90;;;8.70;99.90;;;;;;5034156;28;20101;-70
2021/04/25 05:04:09;;;;;;;5.13;4.18;;;8.90;99.90;;;;;;5033564;28;20367;-70
2021/04/25 05:06:35;;;;;;;4.82;4.40;;;9.10;99.90;;;;;;5036706;28;20033;-70
2021/04/25 05:09:00;;;;;;;10.20;5.25;;;9.30;75.50;;;;;;5046273;28;20139;-71
2021/04/25 05:11:26;;;;;;;5.13;4.47;;;9.70;99.90;;;;;;5055696;28;20041;-72
2021/04/25 05:13:51;;;;;;;8.50;5.07;;;9.90;99.90;;;;;;5046616;28;20041;-71
2021/04/25 05:16:17;;;;;;;6.20;4.22;;;9.90;21.70;;;;;;5047802;28;20021;-69
2021/04/25 05:18:43;;;;;;;6.05;5.28;;;10.40;1.00;;;;;;5035190;28;20029;-69
2021/04/25 05:21:08;;;;;;;9.70;5.13;;;10.60;99.90;;;;;;5035380;28;20388;-70
2021/04/25 05:23:34;;;;;;;8.07;5.28;;;10.50;1.00;;;;;;5037782;28;20457;-70
2021/04/25 05:25:59;;;;;;;6.60;4.38;;;10.70;99.90;;;;;;5039095;28;20029;-71
2021/04/25 05:28:25;;;;;;;5.75;4.70;;;11.10;99.90;;;;;;5049705;28;20045;-71
2021/04/25 05:30:51;;;;;;;7.65;5.28;;;11.00;82.50;;;;;;5039268;28;20030;-71
2021/04/25 05:33:16;;;;;;;10.80;5.80;;;11.00;1.00;;;;;;5040072;28;20057;-71
2021/04/25 05:35:42;;;;;;;5.13;4.60;;;11.10;1.00;;;;;;5040334;28;20040;-71
2021/04/25 05:38:08;;;;;;;8.20;4.85;;;11.20;83.60;;;;;;5041018;28;20397;-70
2021/04/25 05:40:34;;;;;;;10.98;4.82;;;11.90;1.00;;;;;;5040269;28;20044;-70
2021/04/25 05:42:59;;;;;;;6.78;4.45;;;11.70;1.00;;;;;;5047268;28;20018;-70
2021/04/25 05:45:25;;;;;;;8.55;5.63;;;11.60;1.00;;;;;;5038590;28;20109;-71
2021/04/25 05:47:56;;;;;;;6.90;4.90;;;11.30;99.90;;;;;;5038917;28;20033;-72
2021/04/25 05:50:24;;;;;;;6.05;5.18;;;11.90;1.00;;;;;;5036796;28;20057;-71
2021/04/25 05:52:50;;;;;;;11.65;5.25;;;11.90;99.90;;;;;;5037110;28;20496;-71
2021/04/25 05:55:17;;;;;;;7.85;5.88;;;11.20;1.00;;;;;;5037377;28;20501;-70
2021/04/25 05:57:43;;;;;;;5.70;4.88;;;10.90;1.00;;;;;;5042057;28;20021;-70
2021/04/25 06:00:13;;;;;;;7.95;5.22;;;10.40;99.90;;;;;;5059857;28;20047;-71
2021/04/25 06:02:38;;;;;;;7.45;6.05;;;10.40;31.10;;;;;;5043345;28;20089;-70
2021/04/25 06:05:05;;;;;;;8.27;5.43;;;10.00;99.90;;;;;;5053141;28;20472;-71
2021/04/25 06:07:31;;;;;;;7.20;5.68;;;9.80;1.00;;;;;;5057838;28;20488;-71
2021/04/25 06:09:56;;;;;;;8.48;6.13;;;10.20;99.90;;;;;;5053363;28;20033;-71
2021/04/25 06:12:22;;;;;;;10.23;7.20;;;9.90;1.00;;;;;;5059741;28;20021;-71
2021/04/25 06:14:47;;;;;;;7.40;5.80;;;10.00;99.90;;;;;;5062683;28;20523;-70
2021/04/25 06:17:13;;;;;;;8.15;6.30;;;9.50;99.90;;;;;;5060948;28;20114;-71
2021/04/25 06:19:39;;;;;;;9.73;5.90;;;9.50;1.00;;;;;;5053781;28;20025;-70
2021/04/25 06:22:05;;;;;;;10.18;7.75;;;9.10;31.50;;;;;;5059215;28;20079;-70
2021/04/25 06:24:31;;;;;;;7.63;6.43;;;9.20;99.90;;;;;;5065082;28;20032;-70
2021/04/25 06:26:56;;;;;;;8.05;6.20;;;9.00;99.90;;;;;;5074643;28;20029;-70
2021/04/25 06:29:22;;;;;;;10.20;6.28;;;9.20;99.90;;;;;;5071067;28;20032;-72
2021/04/25 06:31:47;;;;;;;12.43;7.22;;;9.20;99.90;;;;;;5063921;28;20072;-70
2021/04/25 06:34:14;;;;;;;7.25;6.30;;;9.70;8.80;;;;;;5055678;28;20148;-70
2021/04/25 06:36:42;;;;;;;10.35;7.15;;;9.60;1.00;;;;;;5075286;28;20009;-69
2021/04/25 06:39:09;;;;;;;12.00;7.38;;;9.40;45.00;;;;;;5075812;28;20029;-70
2021/04/25 06:41:34;;;;;;;10.05;7.50;;;9.60;69.90;;;;;;5068112;28;20025;-71
2021/04/25 06:44:00;;;;;;;10.07;7.35;;;9.50;99.90;;;;;;5056873;28;20319;-70
2021/04/25 06:46:27;;;;;;;9.90;7.15;;;9.90;1.00;;;;;;5061715;28;20033;-70
2021/04/25 06:48:53;;;;;;;10.60;7.95;;;10.40;18.40;;;;;;5068013;28;20017;-69
2021/04/25 06:51:18;;;;;;;9.65;7.25;;;10.50;1.00;;;;;;5074869;28;20033;-70
2021/04/25 06:53:44;;;;;;;16.50;7.85;;;10.60;99.90;;;;;;5074128;28;20035;-71
2021/04/25 06:56:09;;;;;;;11.73;8.85;;;10.80;8.20;;;;;;5075530;28;20067;-71
2021/04/25 06:58:35;;;;;;;11.10;8.57;;;11.00;99.90;;;;;;5076457;28;20073;-70
2021/04/25 07:01:01;;;;;;;15.65;8.88;;;11.00;1.00;;;;;;5075817;28;20040;-70
2021/04/25 07:03:28;;;;;;;12.40;9.27;;;11.10;1.00;;;;;;5075621;28;20025;-70
2021/04/25 07:05:53;;;;;;;13.32;8.95;;;11.10;5.80;;;;;;5076221;28;20017;-70
2021/04/25 07:08:23;;;;;;;13.45;8.60;;;11.00;64.00;;;;;;5069964;28;20020;-70
2021/04/25 07:10:48;;;;;;;11.13;9.15;;;11.00;42.60;;;;;;5058299;28;20033;-71
2021/04/25 07:13:14;;;;;;;11.25;9.13;;;11.20;1.00;;;;;;5058441;28;20021;-70
2021/04/25 07:15:39;;;;;;;13.25;9.00;;;11.30;1.00;;;;;;5057756;28;20045;-69
2021/04/25 07:18:05;;;;;;;12.30;7.38;;;11.20;99.90;;;;;;5063252;28;20025;-70
2021/04/25 07:20:31;;;;;;;12.90;8.15;;;11.40;99.90;;;;;;5061111;28;20014;-70
2021/04/25 07:22:56;;;;;;;11.50;8.10;;;11.20;99.90;;;;;;5061552;28;20052;-70
2021/04/25 07:25:22;;;;;;;11.27;8.50;;;11.30;1.00;;;;;;5055663;28;20028;-71
2021/04/25 07:27:48;;;;;;;12.45;8.38;;;11.40;99.90;;;;;;5054610;28;20032;-71
2021/04/25 07:30:14;;;;;;;10.40;9.30;;;11.60;99.90;;;;;;5051998;28;20083;-71
2021/04/25 07:32:40;;;;;;;10.85;8.55;;;11.60;96.50;;;;;;5049633;28;20149;-72
2021/04/25 07:35:06;;;;;;;11.43;8.93;;;11.80;1.00;;;;;;5042789;28;20025;-72
2021/04/25 07:37:32;;;;;;;14.95;9.63;;;11.90;99.90;;;;;;5049552;28;20051;-71
2021/04/25 07:39:57;;;;;;;14.75;8.93;;;11.70;76.80;;;;;;5041019;28;20025;-71
2021/04/25 07:42:23;;;;;;;13.70;9.80;;;11.70;99.90;;;;;;5040830;28;20026;-71
2021/04/25 07:44:49;;;;;;;13.82;9.07;;;11.90;1.00;;;;;;5047765;28;20029;-70
2021/04/25 07:47:14;;;;;;;14.00;10.45;;;12.00;1.00;;;;;;5041115;28;20096;-70
2021/04/25 07:49:40;;;;;;;11.43;9.57;;;12.20;99.90;;;;;;5048784;28;20026;-71
2021/04/25 07:52:06;;;;;;;13.75;9.18;;;11.90;42.70;;;;;;5065159;28;20039;-71
2021/04/25 07:54:33;;;;;;;14.07;9.57;;;12.10;99.90;;;;;;5070929;28;20025;-71
2021/04/25 07:56:59;;;;;;;15.30;10.68;;;11.80;99.90;;;;;;5071109;28;20067;-71
2021/04/25 07:59:24;;;;;;;15.35;10.75;;;11.90;99.90;;;;;;5069003;28;20021;-70
2021/04/25 08:01:50;;;;;;;14.32;10.07;;;11.90;99.90;;;;;;5070986;28;20021;-70
2021/04/25 08:04:16;;;;;;;10.05;8.95;;;11.80;1.00;;;;;;5062625;28;20056;-71
2021/04/25 08:06:42;;;;;;;15.93;10.07;;;12.00;99.90;;;;;;5049790;28;20040;-71
2021/04/25 08:09:08;;;;;;;14.05;10.23;;;12.40;1.00;;;;;;5070227;28;20025;-71
2021/04/25 08:11:33;;;;;;;14.35;10.55;;;12.40;1.00;;;;;;5063121;28;20025;-70
2021/04/25 08:13:59;;;;;;;12.45;10.65;;;12.10;99.90;;;;;;5067393;28;20043;-71
2021/04/25 08:16:25;;;;;;;13.75;10.77;;;12.00;1.00;;;;;;5073922;28;20029;-71
2021/04/25 08:18:51;;;;;;;14.35;10.30;;;11.90;99.90;;;;;;5073031;28;20020;-70
2021/04/25 08:21:16;;;;;;;16.88;10.38;;;11.60;99.90;;;;;;5073830;28;20021;-72
2021/04/25 08:23:42;;;;;;;14.93;10.75;;;12.20;99.90;;;;;;5067983;28;20022;-71
2021/04/25 08:26:08;;;;;;;14.00;10.13;;;12.60;99.90;;;;;;5059990;28;20017;-70
2021/04/25 08:28:34;;;;;;;14.23;9.63;;;12.50;99.90;;;;;;5071762;28;20093;-70
2021/04/25 08:31:00;;;;;;;13.45;10.52;;;12.80;99.90;;;;;;5067282;28;20036;-71
2021/04/25 08:33:25;;;;;;;18.50;10.18;;;12.80;47.10;;;;;;5064217;28;20026;-71
2021/04/25 08:35:51;;;;;;;12.45;10.10;;;12.90;23.80;;;;;;5053663;28;20068;-70
2021/04/25 08:38:17;;;;;;;14.20;10.25;;;12.60;99.90;;;;;;5054063;28;20025;-73
2021/04/25 08:40:43;;;;;;;15.02;10.50;;;13.00;30.80;;;;;;5060835;28;20025;-74
2021/04/25 08:43:14;;;;;;;17.10;11.10;;;13.10;99.90;;;;;;5070928;28;20040;-76
2021/04/25 08:45:41;;;;;;;11.75;10.32;;;13.30;99.90;;;;;;5075285;28;20009;-74
2021/04/25 08:48:11;;;;;;;14.18;10.23;;;13.20;99.90;;;;;;5056805;28;20088;-74
2021/04/25 08:50:37;;;;;;;14.73;10.95;;;13.30;99.90;;;;;;5060195;28;20021;-76
2021/04/25 08:53:03;;;;;;;11.88;9.88;;;13.00;99.90;;;;;;5069668;28;20032;-73
2021/04/25 08:55:29;;;;;;;15.02;11.48;;;13.30;99.90;;;;;;5074616;28;20017;-75
2021/04/25 08:57:55;;;;;;;12.57;9.80;;;13.40;64.40;;;;;;5072111;28;20136;-76
2021/04/25 09:00:21;;;;;;;14.50;9.35;;;13.40;53.80;;;;;;5052965;28;20500;-76
2021/04/25 09:02:50;;;;;;;14.27;10.25;;;13.50;30.20;;;;;;5027526;28;20134;-71
2021/04/25 09:05:16;;;;;;;11.63;8.85;;;13.40;1.00;;;;;;5055805;28;20045;-73
2021/04/25 09:08:02;;;;;;;13.30;9.90;;;13.50;1.00;;;;;;5056635;28;20031;-71
2021/04/25 09:10:43;;;;;;;11.20;9.20;;;13.10;1.00;;;;;;5047379;28;20033;-72
2021/04/25 09:13:22;;;;;;;12.68;8.55;;;13.20;1.00;;;;;;5061453;28;20009;-71
2021/04/25 09:15:49;;;;;;;13.20;9.88;;;13.20;30.10;;;;;;5054087;28;20034;-71
2021/04/25 09:18:17;;;;;;;11.85;9.15;;;13.10;61.80;;;;;;5062061;28;20027;-69
2021/04/25 09:20:48;;;;;;;17.40;10.07;;;13.40;1.00;;;;;;5054804;28;20028;-72
2021/04/25 09:23:29;;;;;;;13.30;9.18;;;13.50;1.00;;;;;;5039100;28;20052;-71
2021/04/25 09:26:04;;;;;;;10.30;9.20;;;13.70;1.00;;;;;;5039479;28;20033;-72
2021/04/25 09:28:31;;;;;;;11.75;9.30;;;13.90;1.00;;;;;;5045200;28;20026;-72
2021/04/25 09:31:02;;;;;;;13.80;9.63;;;14.00;99.90;;;;;;5050051;28;20041;-73
2021/04/25 09:33:47;;;;;;;10.50;9.03;;;14.10;99.90;;;;;;5048775;28;20084;-70
2021/04/25 09:36:15;;;;;;;9.27;8.27;;;14.10;99.90;;;;;;5047889;28;20022;-71
2021/04/25 09:38:41;;;;;;;10.55;7.95;;;13.90;99.90;;;;;;5054342;28;20101;-70
2021/04/25 09:41:06;;;;;;;8.88;7.45;;;13.60;99.90;;;;;;5037023;28;20453;-72
2021/04/25 09:43:45;;;;;;;7.55;6.18;;;13.80;99.90;;;;;;5046393;28;20547;-70
2021/04/25 09:46:11;;;;;;;9.25;7.25;;;13.70;99.90;;;;;;5043825;28;20112;-70
2021/04/25 09:48:36;;;;;;;7.95;6.70;;;14.10;99.90;;;;;;5042450;28;20064;-71
2021/04/25 09:51:05;;;;;;;12.77;8.07;;;14.10;99.90;;;;;;5048176;28;20485;-71
2021/04/25 09:53:30;;;;;;;7.90;6.28;;;14.10;99.90;;;;;;5049559;28;20085;-70
2021/04/25 09:55:57;;;;;;;10.02;7.70;;;14.10;96.60;;;;;;5052466;28;20029;-70
2021/04/25 09:58:22;;;;;;;11.80;7.85;;;14.00;99.90;;;;;;5046141;28;20085;-70
2021/04/25 10:00:50;;;;;;;9.23;7.35;;;13.90;83.70;;;;;;5052538;28;20041;-70
2021/04/25 10:03:19;;;;;;;10.18;6.75;;;14.20;99.90;;;;;;5038553;28;20064;-72
2021/04/25 10:05:59;;;;;;;10.88;8.23;;;14.20;99.90;;;;;;5044770;28;20096;-75
2021/04/25 10:08:29;;;;;;;9.88;7.93;;;14.50;6.80;;;;;;5043024;28;20021;-72
2021/04/25 10:10:55;;;;;;;8.48;7.30;;;14.40;1.00;;;;;;5058398;28;20020;-70
2021/04/25 10:13:21;;;;;;;11.70;7.97;;;14.30;1.00;;;;;;5054617;28;20048;-71
2021/04/25 10:15:46;;;;;;;12.00;8.63;;;14.40;1.00;;;;;;5049776;28;20030;-71
2021/04/25 10:18:13;;;;;;;8.82;7.22;;;14.30;1.00;;;;;;5056924;28;20062;-70
2021/04/25 10:20:39;;;;;;;10.90;6.93;;;14.50;1.00;;;;;;5048382;28;20507;-72
2021/04/25 10:23:06;;;;;;;11.98;7.47;;;14.30;99.90;;;;;;5060202;28;20017;-76
2021/04/25 10:25:37;;;;;;;10.68;8.00;;;14.60;99.90;;;;;;5057524;28;20036;-74
2021/04/25 10:28:05;;;;;;;;;;;14.40;1.00;;;;;;5060186;28;20091;-73
2021/04/25 10:30:37;;;;;;;10.40;7.18;;;14.50;1.00;;;;;;5044403;28;19904;-73
2021/04/25 10:33:03;;;;;;;10.80;7.07;;;14.70;99.90;;;;;;5052189;28;20025;-72
2021/04/25 10:35:32;;;;;;;8.02;5.47;;;14.90;99.90;;;;;;5052703;28;20024;-73
2021/04/25 10:37:59;;;;;;;7.25;6.47;;;15.10;99.90;;;;;;5046496;28;20032;-73
2021/04/25 10:40:34;;;;;;;7.20;5.60;;;15.20;99.90;;;;;;5061885;28;20036;-75
2021/04/25 10:43:01;;;;;;;7.47;5.65;;;15.30;99.90;;;;;;5053752;28;20476;-71
2021/04/25 10:45:29;;;;;;;7.72;5.95;;;15.40;99.90;;;;;;5051530;28;20372;-72
2021/04/25 10:48:31;;;;;;;11.55;7.43;;;15.60;99.90;;;;;;5045680;28;20090;-74
2021/04/25 10:51:14;;;;;;;8.13;6.78;;;15.40;99.90;;;;;;5049569;28;20024;-73
2021/04/25 10:53:43;;;;;;;8.50;6.40;;;14.80;99.90;;;;;;5047606;28;20504;-74
2021/04/25 10:56:15;;;;;;;12.10;6.80;;;14.80;99.90;;;;;;5049724;28;20024;-73
2021/04/25 10:58:45;;;;;;;7.88;6.43;;;15.00;99.90;;;;;;5051291;28;20358;-71
2021/04/25 11:01:35;;;;;;;8.75;6.30;;;15.50;99.90;;;;;;5054859;28;20013;-74
2021/04/25 11:04:01;;;;;;;11.25;5.50;;;15.70;99.90;;;;;;5040405;28;20184;-75
2021/04/25 11:06:27;;;;;;;6.95;5.93;;;15.30;99.90;;;;;;5050744;28;20492;-75
2021/04/25 11:08:53;;;;;;;8.18;5.50;;;15.40;99.90;;;;;;5046965;28;20024;-75
2021/04/25 11:11:32;;;;;;;6.60;5.57;;;15.10;99.90;;;;;;5055072;28;20132;-74
2021/04/25 11:13:58;;;;;;;7.43;5.47;;;15.20;99.90;;;;;;5057139;28;20044;-75
2021/04/25 11:16:25;;;;;;;5.93;5.28;;;15.20;99.90;;;;;;5056340;28;20033;-73
2021/04/25 11:19:09;;;;;;;9.90;5.80;;;15.60;99.90;;;;;;5043701;28;20030;-73
2021/04/25 11:21:46;;;;;;;8.45;5.10;;;15.60;99.90;;;;;;5048492;28;20040;-71
2021/04/25 11:24:12;;;;;;;5.20;4.43;;;15.60;99.90;;;;;;5037862;28;20022;-72
2021/04/25 11:26:41;;;;;;;5.82;4.78;;;15.50;99.90;;;;;;5040233;28;20040;-74
2021/04/25 11:29:09;;;;;;;4.80;4.30;;;15.70;99.90;;;;;;5041652;28;20040;-72
2021/04/25 11:31:46;;;;;;;6.35;5.13;;;15.30;99.90;;;;;;5046933;28;20029;-71
2021/04/25 11:34:31;;;;;;;7.57;3.63;;;15.60;99.90;;;;;;5049670;28;20094;-74
2021/04/25 11:37:12;;;;;;;4.07;3.67;;;15.80;99.90;;;;;;5046862;28;20440;-75
2021/04/25 11:39:44;;;;;;;5.95;3.75;;;15.90;99.90;;;;;;5044207;28;20396;-71
2021/04/25 11:42:11;;;;;;;;;;;16.00;99.90;;;;;;5040787;28;20047;-72
2021/04/25 11:44:42;;;;;;;6.00;4.03;;;15.80;99.90;;;;;;5038818;28;20011;-73
2021/04/25 11:47:09;;;;;;;7.30;4.10;;;15.80;95.50;;;;;;5036989;28;20517;-72
2021/04/25 11:49:38;;;;;;;3.90;3.47;;;15.30;95.40;;;;;;5034811;28;20440;-72
2021/04/25 11:52:27;;;;;;;6.75;4.00;;;15.50;94.70;;;;;;5035613;28;20030;-73
2021/04/25 11:54:58;;;;;;;5.60;4.22;;;15.80;89.00;;;;;;5035626;28;20033;-74
2021/04/25 11:57:24;;;;;;;;;;;15.60;87.50;;;;;;5035689;28;20108;-73
2021/04/25 11:59:51;;;;;;;4.72;3.33;;;16.00;85.30;;;;;;5046293;28;19944;-73
2021/04/25 12:02:17;;;;;;;7.75;4.85;;;16.10;83.50;;;;;;5047107;28;20404;-74
2021/04/25 12:04:59;;;;;;;3.97;3.45;;;16.30;79.50;;;;;;5056053;28;20021;-71
2021/04/25 12:07:39;;;;;;;4.03;3.70;;;16.50;73.20;;;;;;5054337;28;20636;-74
2021/04/25 12:10:09;;;;;;;7.35;3.08;;;16.60;61.40;;;;;;5055925;28;20547;-72
2021/04/25 12:12:35;;;;;;;4.95;3.47;;;16.40;54.20;;;;;;5055347;28;20457;-73
2021/04/25 12:15:05;;;;;;;5.25;3.40;;;16.00;46.60;;;;;;5055035;28;20033;-74
2021/04/25 12:17:31;;;;;;;5.10;3.80;;;16.10;46.50;;;;;;5054758;28;20190;-73
2021/04/25 12:20:00;;;;;;;5.97;3.50;;;15.80;42.40;;;;;;5053508;28;20039;-73
2021/04/25 12:22:26;;;;;;;4.85;4.35;;;15.90;45.40;;;;;;5066489;28;20021;-72
2021/04/25 12:24:59;;;;;;;6.10;4.00;;;16.20;41.40;;;;;;5076949;28;20017;-72
2021/04/25 12:27:25;;;;;;;4.15;2.92;;;16.00;35.80;;;;;;5075997;28;20017;-72
2021/04/25 12:29:51;;;;;;;3.47;2.80;;;16.30;31.60;;;;;;5074581;28;20029;-73
2021/04/25 12:32:21;;;;;;;7.88;3.45;;;16.30;29.80;;;;;;5058442;28;20040;-73
2021/04/25 12:35:03;;;;;;;5.55;3.13;;;16.20;25.20;;;;;;5056530;28;20035;-73
2021/04/25 12:37:40;;;;;;;4.35;2.80;;;16.30;19.70;;;;;;5054908;28;20021;-72
2021/04/25 12:40:29;;;;;;;3.42;2.85;;;16.30;18.10;;;;;;5055659;28;20047;-72
2021/04/25 12:43:09;;;;;;;4.43;3.08;;;16.60;16.80;;;;;;5056135;28;20028;-72
2021/04/25 12:45:35;;;;;;;4.55;3.20;;;17.00;16.40;;;;;;5055565;28;20025;-72
2021/04/25 12:48:36;;;;;;;4.57;2.75;;;16.60;11.70;;;;;;5053190;28;20459;-73
2021/04/25 12:51:10;;;;;;;4.75;2.65;;;16.50;8.10;;;;;;5055759;28;20047;-73
2021/04/25 12:53:43;;;;;;;8.63;3.00;;;16.50;5.10;;;;;;5054896;28;20025;-72